createdAt,value
2016-12-31T00:00:39.096Z,0
2016-12-31T00:01:20.534Z,0
2016-12-31T00:02:01.808Z,0
2016-12-31T00:02:42.299Z,0
2016-12-31T00:03:23.519Z,0
2016-12-31T00:04:03.978Z,0
2016-12-31T00:04:45.365Z,0
2016-12-31T00:05:25.826Z,0
2016-12-31T00:06:10.897Z,0
2016-12-31T00:06:52.917Z,0
2016-12-31T00:07:35.248Z,0
2016-12-31T00:08:15.733Z,0
2016-12-31T00:08:56.160Z,0
2016-12-31T00:09:37.330Z,0
2016-12-31T00:10:17.765Z,0
2016-12-31T00:10:58.333Z,0
2016-12-31T00:11:38.800Z,0
2016-12-31T00:12:19.303Z,0
2016-12-31T00:12:59.777Z,0
2016-12-31T00:13:43.037Z,0
2016-12-31T00:14:23.990Z,0
2016-12-31T00:15:05.450Z,0
2016-12-31T00:15:45.929Z,0
2016-12-31T00:16:27.367Z,0
2016-12-31T00:17:07.877Z,0
2016-12-31T00:17:48.375Z,0
2016-12-31T00:18:28.875Z,0
2016-12-31T00:19:09.968Z,0
2016-12-31T00:19:51.360Z,0
2016-12-31T00:20:31.842Z,0
2016-12-31T00:21:12.819Z,0
2016-12-31T00:21:54.102Z,0
2016-12-31T00:22:35.120Z,0
2016-12-31T00:24:57.348Z,0
2016-12-31T00:25:45.951Z,0
2016-12-31T00:26:35.094Z,0
2016-12-31T00:27:23.446Z,0
2016-12-31T00:28:12.036Z,0
2016-12-31T00:29:00.595Z,0
2016-12-31T00:29:49.519Z,0
2016-12-31T00:30:38.139Z,0
2016-12-31T00:31:27.193Z,0
2016-12-31T00:32:15.465Z,0
2016-12-31T00:33:04.364Z,0
2016-12-31T00:33:53.799Z,0
2016-12-31T00:34:41.824Z,0
2016-12-31T00:35:30.345Z,0
2016-12-31T00:36:19.680Z,0
2016-12-31T00:37:07.879Z,0
2016-12-31T00:37:56.880Z,0
2016-12-31T00:38:45.242Z,0
2016-12-31T00:39:33.817Z,0
2016-12-31T00:40:22.342Z,0
2016-12-31T00:41:11.047Z,0
2016-12-31T00:41:59.915Z,0
2016-12-31T00:42:48.484Z,0
2016-12-31T00:43:36.955Z,0
2016-12-31T00:44:25.797Z,0
2016-12-31T00:45:14.538Z,0
2016-12-31T00:46:03.003Z,0
2016-12-31T00:48:24.611Z,0
2016-12-31T00:49:13.223Z,0
2016-12-31T00:50:01.725Z,0
2016-12-31T00:50:50.175Z,0
2016-12-31T00:51:38.834Z,0
2016-12-31T00:52:27.363Z,0
2016-12-31T00:53:16.417Z,0
2016-12-31T00:54:05.604Z,0
2016-12-31T00:54:54.068Z,0
2016-12-31T00:55:42.392Z,0
2016-12-31T00:56:31.193Z,0
2016-12-31T00:57:19.705Z,0
2016-12-31T00:58:08.166Z,0
2016-12-31T00:58:57.117Z,0
2016-12-31T00:59:45.678Z,0
2016-12-31T01:00:34.381Z,0
2016-12-31T01:01:22.758Z,0
2016-12-31T01:02:11.644Z,0
2016-12-31T01:03:00.218Z,0
2016-12-31T01:03:48.688Z,0
2016-12-31T01:04:37.687Z,0
2016-12-31T01:05:25.944Z,0
2016-12-31T01:06:14.705Z,0
2016-12-31T01:07:03.366Z,0
2016-12-31T01:07:52.321Z,0
2016-12-31T01:08:41.008Z,0
2016-12-31T01:09:29.357Z,0
2016-12-31T01:10:17.758Z,0
2016-12-31T01:11:06.454Z,0
2016-12-31T01:11:55.244Z,0
2016-12-31T01:12:43.880Z,0
2016-12-31T01:13:32.766Z,0
2016-12-31T01:14:21.558Z,0
2016-12-31T01:15:09.863Z,0
2016-12-31T01:15:58.710Z,0
2016-12-31T01:16:47.542Z,0
2016-12-31T01:17:35.811Z,0
2016-12-31T01:18:24.590Z,0
2016-12-31T01:19:13.194Z,0
2016-12-31T01:20:02.057Z,0
2016-12-31T01:20:50.735Z,0
2016-12-31T01:21:39.145Z,0
2016-12-31T01:22:27.845Z,0
2016-12-31T01:23:14.584Z,0
2016-12-31T01:24:03.436Z,0
2016-12-31T01:24:51.912Z,0
2016-12-31T01:25:40.741Z,0
2016-12-31T01:26:29.435Z,0
2016-12-31T01:27:18.040Z,0
2016-12-31T01:28:06.375Z,0
2016-12-31T01:28:55.125Z,0
2016-12-31T01:29:43.833Z,0
2016-12-31T01:30:32.351Z,0
2016-12-31T01:31:20.907Z,0
2016-12-31T01:32:09.733Z,0
2016-12-31T01:32:58.337Z,0
2016-12-31T01:33:46.800Z,0
2016-12-31T01:34:35.188Z,0
2016-12-31T01:35:23.914Z,0
2016-12-31T01:36:12.449Z,0
2016-12-31T01:37:00.982Z,0
2016-12-31T01:37:49.662Z,0
2016-12-31T01:38:38.647Z,0
2016-12-31T01:39:27.135Z,0
2016-12-31T01:40:15.667Z,0
2016-12-31T01:41:04.302Z,0
2016-12-31T01:41:52.808Z,0
2016-12-31T01:42:41.627Z,0
2016-12-31T01:43:30.579Z,0
2016-12-31T01:44:18.751Z,0
2016-12-31T01:45:07.347Z,0
2016-12-31T01:45:55.941Z,0
2016-12-31T01:46:44.747Z,0
2016-12-31T01:47:33.238Z,0
2016-12-31T01:48:21.946Z,0
2016-12-31T01:49:10.688Z,0
2016-12-31T01:49:59.309Z,0
2016-12-31T01:50:48.152Z,0
2016-12-31T01:51:36.943Z,0
2016-12-31T01:52:25.338Z,0
2016-12-31T01:53:13.959Z,0
2016-12-31T01:54:02.710Z,0
2016-12-31T01:54:51.313Z,0
2016-12-31T01:55:40.133Z,0
2016-12-31T01:56:28.972Z,0
2016-12-31T01:57:17.365Z,0
2016-12-31T01:58:06.736Z,0
2016-12-31T01:58:55.527Z,0
2016-12-31T01:59:43.953Z,0
2016-12-31T02:00:33.039Z,0
2016-12-31T02:01:21.337Z,0
2016-12-31T02:02:10.187Z,0
2016-12-31T02:02:59.064Z,0
2016-12-31T02:03:47.728Z,0
2016-12-31T02:04:36.111Z,0
2016-12-31T02:05:24.401Z,0
2016-12-31T02:06:13.409Z,0
2016-12-31T02:07:01.835Z,0
2016-12-31T02:07:50.319Z,0
2016-12-31T02:08:39.002Z,0
2016-12-31T02:09:28.046Z,0
2016-12-31T02:10:16.538Z,0
2016-12-31T02:11:05.165Z,0
2016-12-31T02:11:53.856Z,0
2016-12-31T02:12:42.653Z,0
2016-12-31T02:13:31.583Z,0
2016-12-31T02:14:19.860Z,0
2016-12-31T02:15:08.730Z,0
2016-12-31T02:15:57.522Z,0
2016-12-31T02:16:46.284Z,0
2016-12-31T02:17:34.840Z,0
2016-12-31T02:18:23.419Z,0
2016-12-31T02:19:11.944Z,0
2016-12-31T02:20:00.452Z,0
2016-12-31T02:20:49.475Z,0
2016-12-31T02:21:37.824Z,0
2016-12-31T02:22:26.584Z,0
2016-12-31T02:23:13.965Z,0
2016-12-31T02:24:03.156Z,0
2016-12-31T02:24:51.720Z,0
2016-12-31T02:25:39.924Z,0
2016-12-31T02:26:28.669Z,0
2016-12-31T02:27:17.533Z,0
2016-12-31T02:28:05.855Z,0
2016-12-31T02:28:54.448Z,0
2016-12-31T02:29:42.935Z,0
2016-12-31T02:30:32.120Z,0
2016-12-31T02:31:20.300Z,0
2016-12-31T02:32:09.234Z,0
2016-12-31T02:32:58.073Z,0
2016-12-31T02:33:46.097Z,0
2016-12-31T02:34:34.958Z,0
2016-12-31T02:35:23.704Z,0
2016-12-31T02:36:12.582Z,0
2016-12-31T02:37:01.612Z,0
2016-12-31T02:37:49.738Z,0
2016-12-31T02:38:38.287Z,0
2016-12-31T02:39:27.048Z,0
2016-12-31T02:40:15.926Z,0
2016-12-31T02:41:04.911Z,0
2016-12-31T02:41:53.273Z,0
2016-12-31T02:42:42.220Z,0
2016-12-31T02:43:30.319Z,0
2016-12-31T02:44:19.316Z,0
2016-12-31T02:45:07.929Z,0
2016-12-31T02:45:56.376Z,0
2016-12-31T02:46:45.168Z,0
2016-12-31T02:47:34.177Z,0
2016-12-31T02:48:22.282Z,0
2016-12-31T02:49:11.024Z,0
2016-12-31T02:49:59.709Z,0
2016-12-31T02:50:48.311Z,0
2016-12-31T02:51:37.223Z,0
2016-12-31T02:52:25.447Z,0
2016-12-31T02:53:14.267Z,0
2016-12-31T02:54:02.965Z,0
2016-12-31T02:54:52.006Z,0
2016-12-31T02:55:40.417Z,0
2016-12-31T02:56:29.624Z,0
2016-12-31T02:57:17.851Z,0
2016-12-31T02:58:06.661Z,0
2016-12-31T02:58:55.727Z,0
2016-12-31T02:59:43.779Z,0
2016-12-31T03:00:32.657Z,0
2016-12-31T03:01:21.388Z,0
2016-12-31T03:02:10.691Z,0
2016-12-31T03:02:58.908Z,0
2016-12-31T03:03:47.407Z,0
2016-12-31T03:04:36.684Z,0
2016-12-31T03:05:24.856Z,0
2016-12-31T03:06:13.656Z,0
2016-12-31T03:07:02.193Z,0
2016-12-31T03:07:50.897Z,0
2016-12-31T03:08:39.673Z,0
2016-12-31T03:09:28.398Z,0
2016-12-31T03:10:16.900Z,0
2016-12-31T03:11:06.098Z,0
2016-12-31T03:11:54.698Z,0
2016-12-31T03:12:43.173Z,0
2016-12-31T03:13:31.938Z,0
2016-12-31T03:14:20.692Z,0
2016-12-31T03:15:08.959Z,0
2016-12-31T03:15:58.199Z,0
2016-12-31T03:16:46.873Z,0
2016-12-31T03:17:35.044Z,0
2016-12-31T03:18:23.438Z,0
2016-12-31T03:19:12.316Z,0
2016-12-31T03:20:00.948Z,0
2016-12-31T03:20:50.109Z,0
2016-12-31T03:21:38.324Z,0
2016-12-31T03:22:26.950Z,0
2016-12-31T03:23:15.721Z,0
2016-12-31T03:23:56.333Z,0
2016-12-31T03:24:36.817Z,0
2016-12-31T03:25:18.045Z,0
2016-12-31T03:25:58.561Z,0
2016-12-31T03:26:38.980Z,0
2016-12-31T03:27:19.468Z,0
2016-12-31T03:27:59.958Z,0
2016-12-31T03:28:41.364Z,0
2016-12-31T03:29:29.043Z,0
2016-12-31T03:30:09.535Z,0
2016-12-31T03:30:50.703Z,0
2016-12-31T03:31:31.233Z,0
2016-12-31T03:32:11.729Z,0
2016-12-31T03:32:52.232Z,0
2016-12-31T03:33:32.709Z,0
2016-12-31T03:34:13.218Z,0
2016-12-31T03:34:53.694Z,0
2016-12-31T03:35:34.932Z,0
2016-12-31T03:36:16.038Z,0
2016-12-31T03:36:56.626Z,0
2016-12-31T03:37:37.043Z,0
2016-12-31T03:38:17.537Z,0
2016-12-31T03:38:58.914Z,0
2016-12-31T03:39:39.950Z,0
2016-12-31T03:40:20.457Z,0
2016-12-31T03:41:01.625Z,0
2016-12-31T03:41:42.119Z,0
2016-12-31T03:42:22.599Z,0
2016-12-31T03:43:03.913Z,0
2016-12-31T03:43:44.416Z,0
2016-12-31T03:44:24.913Z,0
2016-12-31T03:45:06.133Z,0
2016-12-31T03:45:46.596Z,0
2016-12-31T03:46:27.096Z,0
2016-12-31T03:47:08.410Z,0
2016-12-31T03:47:49.825Z,0
2016-12-31T03:48:30.284Z,0
2016-12-31T03:49:11.586Z,0
2016-12-31T03:49:52.071Z,0
2016-12-31T03:50:32.505Z,0
2016-12-31T03:51:15.540Z,0
2016-12-31T03:51:56.069Z,0
2016-12-31T03:52:36.483Z,0
2016-12-31T03:53:17.712Z,0
2016-12-31T03:53:58.954Z,0
2016-12-31T03:54:39.465Z,0
2016-12-31T03:55:19.962Z,0
2016-12-31T03:56:01.232Z,0
2016-12-31T03:56:42.399Z,0
2016-12-31T03:57:22.838Z,0
2016-12-31T03:58:03.326Z,0
2016-12-31T03:58:43.815Z,0
2016-12-31T03:59:24.308Z,0
2016-12-31T04:00:04.778Z,0
2016-12-31T04:00:45.818Z,0
2016-12-31T04:01:28.075Z,0
2016-12-31T04:02:08.514Z,0
2016-12-31T04:02:50.556Z,0
2016-12-31T04:03:31.222Z,0
2016-12-31T04:04:11.499Z,0
2016-12-31T04:04:52.048Z,0
2016-12-31T04:05:32.474Z,0
2016-12-31T04:06:12.999Z,0
2016-12-31T04:06:53.493Z,0
2016-12-31T04:07:33.968Z,0
2016-12-31T04:08:14.437Z,0
2016-12-31T04:08:55.590Z,0
2016-12-31T04:09:36.035Z,0
2016-12-31T04:10:16.565Z,0
2016-12-31T04:10:58.577Z,0
2016-12-31T04:11:40.721Z,0
2016-12-31T04:12:21.203Z,0
2016-12-31T04:13:03.553Z,0
2016-12-31T04:13:46.589Z,0
2016-12-31T04:14:30.544Z,0
2016-12-31T04:15:11.700Z,0
2016-12-31T04:15:52.268Z,0
2016-12-31T04:16:32.725Z,0
2016-12-31T04:17:14.140Z,0
2016-12-31T04:17:54.637Z,0
2016-12-31T04:18:37.942Z,0
2016-12-31T04:19:18.933Z,0
2016-12-31T04:20:00.039Z,0
2016-12-31T04:20:40.537Z,0
2016-12-31T04:21:20.984Z,0
2016-12-31T04:22:03.047Z,0
2016-12-31T04:22:44.167Z,0
2016-12-31T04:23:26.212Z,0
2016-12-31T04:24:07.465Z,0
2016-12-31T04:24:48.729Z,0
2016-12-31T04:25:29.227Z,0
2016-12-31T04:26:10.135Z,0
2016-12-31T04:26:50.588Z,0
2016-12-31T04:27:31.251Z,0
2016-12-31T04:28:11.579Z,0
2016-12-31T04:28:52.054Z,0
2016-12-31T04:29:32.542Z,0
2016-12-31T04:30:13.049Z,0
2016-12-31T04:30:54.473Z,0
2016-12-31T04:31:34.967Z,0
2016-12-31T04:32:15.467Z,0
2016-12-31T04:32:55.950Z,0
2016-12-31T04:33:37.283Z,0
2016-12-31T04:34:17.825Z,0
2016-12-31T04:34:59.769Z,0
2016-12-31T04:35:40.213Z,0
2016-12-31T04:36:21.480Z,0
2016-12-31T04:37:01.921Z,0
2016-12-31T04:39:39.087Z,0
2016-12-31T04:40:28.317Z,0
2016-12-31T04:41:16.701Z,0
2016-12-31T04:42:05.862Z,0
2016-12-31T04:42:54.408Z,0
2016-12-31T04:43:42.918Z,0
2016-12-31T04:44:31.440Z,0
2016-12-31T04:45:20.173Z,0
2016-12-31T04:46:08.474Z,0
2016-12-31T04:46:57.136Z,0
2016-12-31T04:47:45.935Z,0
2016-12-31T04:48:34.487Z,0
2016-12-31T04:49:23.037Z,0
2016-12-31T04:50:12.350Z,0
2016-12-31T04:51:00.524Z,0
2016-12-31T04:51:49.229Z,0
2016-12-31T04:52:37.979Z,0
2016-12-31T04:53:26.602Z,0
2016-12-31T04:54:15.812Z,0
2016-12-31T04:55:04.075Z,0
2016-12-31T04:55:52.863Z,0
2016-12-31T04:56:41.841Z,0
2016-12-31T04:57:29.966Z,0
2016-12-31T04:58:19.369Z,0
2016-12-31T04:59:07.725Z,0
2016-12-31T04:59:56.111Z,0
2016-12-31T05:00:44.897Z,0
2016-12-31T05:01:33.522Z,0
2016-12-31T05:02:22.052Z,0
2016-12-31T05:03:10.895Z,0
2016-12-31T05:03:59.525Z,0
2016-12-31T05:04:48.296Z,0
2016-12-31T05:05:36.824Z,0
2016-12-31T05:06:25.594Z,0
2016-12-31T05:07:14.628Z,0
2016-12-31T05:08:03.361Z,0
2016-12-31T05:08:51.639Z,0
2016-12-31T05:09:40.473Z,0
2016-12-31T05:10:29.371Z,0
2016-12-31T05:11:17.877Z,0
2016-12-31T05:12:06.503Z,0
2016-12-31T05:12:55.918Z,0
2016-12-31T05:13:43.941Z,0
2016-12-31T05:14:32.432Z,0
2016-12-31T05:15:22.087Z,0
2016-12-31T05:16:10.910Z,0
2016-12-31T05:16:59.452Z,0
2016-12-31T05:17:48.241Z,0
2016-12-31T05:18:37.335Z,0
2016-12-31T05:19:26.099Z,0
2016-12-31T05:20:14.820Z,0
2016-12-31T05:21:03.055Z,0
2016-12-31T05:21:52.168Z,0
2016-12-31T05:22:40.540Z,0
2016-12-31T05:23:29.463Z,0
2016-12-31T05:24:18.003Z,0
2016-12-31T05:25:06.867Z,0
2016-12-31T05:25:55.770Z,0
2016-12-31T05:26:44.085Z,0
2016-12-31T05:27:32.888Z,0
2016-12-31T05:28:21.525Z,0
2016-12-31T05:29:10.406Z,0
2016-12-31T05:29:58.235Z,0
2016-12-31T05:30:46.196Z,0
2016-12-31T05:31:34.763Z,0
2016-12-31T05:32:23.758Z,0
2016-12-31T05:33:12.358Z,0
2016-12-31T05:34:00.829Z,0
2016-12-31T05:34:49.918Z,0
2016-12-31T05:35:38.562Z,0
2016-12-31T05:36:27.364Z,0
2016-12-31T05:37:16.286Z,0
2016-12-31T05:38:04.913Z,0
2016-12-31T05:38:53.605Z,0
2016-12-31T05:39:41.879Z,0
2016-12-31T05:40:30.573Z,0
2016-12-31T05:41:19.112Z,0
2016-12-31T05:42:08.002Z,0
2016-12-31T05:42:56.882Z,0
2016-12-31T05:43:45.544Z,0
2016-12-31T05:44:34.187Z,0
2016-12-31T05:45:22.621Z,0
2016-12-31T05:46:11.723Z,0
2016-12-31T05:47:00.084Z,0
2016-12-31T05:47:48.937Z,0
2016-12-31T05:48:37.411Z,0
2016-12-31T05:49:26.542Z,0
2016-12-31T05:50:14.848Z,0
2016-12-31T05:51:03.428Z,0
2016-12-31T05:51:52.341Z,0
2016-12-31T05:52:40.611Z,0
2016-12-31T05:53:29.824Z,0
2016-12-31T05:54:18.304Z,0
2016-12-31T05:55:06.918Z,0
2016-12-31T05:55:55.534Z,0
2016-12-31T05:56:44.488Z,0
2016-12-31T05:57:32.792Z,0
2016-12-31T05:58:21.586Z,0
2016-12-31T06:00:50.427Z,0
2016-12-31T06:01:39.166Z,0
2016-12-31T06:02:28.031Z,0
2016-12-31T06:03:16.491Z,0
2016-12-31T06:04:05.480Z,0
2016-12-31T06:04:53.919Z,0
2016-12-31T06:05:42.791Z,0
2016-12-31T06:06:31.469Z,0
2016-12-31T06:07:19.854Z,0
2016-12-31T06:08:08.670Z,0
2016-12-31T06:08:57.473Z,0
2016-12-31T06:09:45.925Z,0
2016-12-31T06:10:34.531Z,0
2016-12-31T06:11:23.795Z,0
2016-12-31T06:12:12.098Z,0
2016-12-31T06:13:01.129Z,0
2016-12-31T06:13:49.788Z,0
2016-12-31T06:14:38.357Z,0
2016-12-31T06:15:26.857Z,0
2016-12-31T06:16:15.745Z,0
2016-12-31T06:17:04.144Z,0
2016-12-31T06:17:52.918Z,0
2016-12-31T06:18:41.991Z,0
2016-12-31T06:19:30.882Z,0
2016-12-31T06:20:19.079Z,0
2016-12-31T06:21:08.293Z,0
2016-12-31T06:21:56.991Z,0
2016-12-31T06:22:45.481Z,0
2016-12-31T06:23:34.598Z,0
2016-12-31T06:24:23.414Z,0
2016-12-31T06:25:11.512Z,0
2016-12-31T06:26:00.147Z,0
2016-12-31T06:26:48.961Z,0
2016-12-31T06:27:37.587Z,0
2016-12-31T06:28:26.416Z,0
2016-12-31T06:29:15.410Z,0
2016-12-31T06:30:03.684Z,0
2016-12-31T06:30:52.570Z,0
2016-12-31T06:31:41.594Z,0
2016-12-31T06:32:30.127Z,0
2016-12-31T06:33:19.000Z,0
2016-12-31T06:34:07.839Z,0
2016-12-31T06:34:57.037Z,0
2016-12-31T06:35:45.651Z,0
2016-12-31T06:36:34.383Z,0
2016-12-31T06:37:22.861Z,0
2016-12-31T06:38:11.489Z,0
2016-12-31T06:39:00.292Z,0
2016-12-31T06:39:48.962Z,0
2016-12-31T06:40:37.935Z,0
2016-12-31T06:41:26.393Z,0
2016-12-31T06:42:15.320Z,0
2016-12-31T06:43:03.891Z,0
2016-12-31T06:43:52.797Z,0
2016-12-31T06:44:41.443Z,0
2016-12-31T06:45:30.048Z,0
2016-12-31T06:46:18.581Z,0
2016-12-31T06:47:07.065Z,0
2016-12-31T06:47:56.392Z,0
2016-12-31T06:48:44.984Z,0
2016-12-31T06:51:08.007Z,0
2016-12-31T06:51:56.895Z,0
2016-12-31T06:52:45.397Z,0
2016-12-31T06:53:34.013Z,0
2016-12-31T06:54:22.441Z,0
2016-12-31T06:55:11.415Z,0
2016-12-31T06:55:59.164Z,0
2016-12-31T06:56:47.968Z,0
2016-12-31T06:57:36.797Z,0
2016-12-31T06:58:25.587Z,0
2016-12-31T06:59:14.645Z,0
2016-12-31T07:00:03.383Z,0
2016-12-31T07:00:52.295Z,0
2016-12-31T07:01:40.856Z,0
2016-12-31T07:02:45.280Z,0
2016-12-31T07:05:16.796Z,0
2016-12-31T07:06:05.639Z,0
2016-12-31T07:06:54.269Z,0
2016-12-31T07:07:42.944Z,0
2016-12-31T07:08:32.010Z,0
2016-12-31T07:09:22.737Z,0
2016-12-31T07:17:31.901Z,0
2016-12-31T07:18:24.668Z,0
2016-12-31T07:21:25.273Z,0
2016-12-31T07:22:14.100Z,0
2016-12-31T07:23:09.323Z,0
2016-12-31T07:24:07.011Z,0
2016-12-31T07:25:00.517Z,0
2016-12-31T07:25:56.244Z,0
2016-12-31T07:26:46.231Z,0
2016-12-31T07:27:37.186Z,0
2016-12-31T07:28:28.766Z,0
2016-12-31T07:29:20.601Z,0
2016-12-31T07:30:12.966Z,0
2016-12-31T07:31:02.234Z,0
2016-12-31T07:31:51.214Z,0
2016-12-31T07:32:39.795Z,0
2016-12-31T07:33:30.313Z,0
2016-12-31T07:34:19.749Z,0
2016-12-31T07:35:08.779Z,0
2016-12-31T07:35:59.411Z,0
2016-12-31T07:36:48.111Z,0
2016-12-31T07:37:36.821Z,0
2016-12-31T07:38:26.160Z,0
2016-12-31T07:39:14.364Z,0
2016-12-31T07:40:02.860Z,0
2016-12-31T07:40:52.073Z,0
2016-12-31T07:41:40.474Z,0
2016-12-31T07:44:22.920Z,0
2016-12-31T07:45:11.357Z,0
2016-12-31T07:46:00.936Z,0
2016-12-31T07:46:49.230Z,0
2016-12-31T07:47:38.269Z,0
2016-12-31T07:48:26.708Z,0
2016-12-31T07:49:15.650Z,0
2016-12-31T07:50:03.974Z,0
2016-12-31T07:50:53.190Z,0
2016-12-31T07:51:41.542Z,0
2016-12-31T07:52:30.066Z,0
2016-12-31T07:53:18.919Z,0
2016-12-31T07:54:07.487Z,0
2016-12-31T07:54:56.651Z,0
2016-12-31T07:55:44.960Z,0
2016-12-31T07:56:33.783Z,5
2016-12-31T07:57:22.569Z,0
2016-12-31T07:58:11.663Z,5
2016-12-31T07:59:00.110Z,0
2016-12-31T07:59:49.163Z,5
2016-12-31T08:00:37.629Z,5
2016-12-31T08:01:26.806Z,5
2016-12-31T08:02:15.239Z,5
2016-12-31T08:03:03.856Z,5
2016-12-31T08:03:52.261Z,5
2016-12-31T08:04:41.280Z,5
2016-12-31T08:05:29.840Z,5
2016-12-31T08:06:18.740Z,5
2016-12-31T08:07:07.550Z,5
2016-12-31T08:07:56.266Z,5
2016-12-31T08:08:44.913Z,5
2016-12-31T08:09:33.268Z,5
2016-12-31T08:10:21.907Z,5
2016-12-31T08:11:10.469Z,5
2016-12-31T08:11:59.698Z,5
2016-12-31T08:12:48.022Z,5
2016-12-31T08:13:36.857Z,5
2016-12-31T08:14:25.649Z,5
2016-12-31T08:15:14.388Z,5
2016-12-31T08:16:02.828Z,5
2016-12-31T08:16:51.540Z,5
2016-12-31T08:17:39.957Z,5
2016-12-31T08:18:28.894Z,10
2016-12-31T08:19:17.256Z,10
2016-12-31T08:20:06.327Z,10
2016-12-31T08:20:54.298Z,10
2016-12-31T08:21:43.710Z,10
2016-12-31T08:22:32.040Z,10
2016-12-31T08:23:21.160Z,10
2016-12-31T08:24:10.397Z,10
2016-12-31T08:24:58.347Z,10
2016-12-31T08:25:47.043Z,10
2016-12-31T08:26:36.176Z,10
2016-12-31T08:27:24.662Z,10
2016-12-31T08:28:14.221Z,10
2016-12-31T08:29:02.914Z,10
2016-12-31T08:29:52.057Z,10
2016-12-31T08:30:40.708Z,10
2016-12-31T08:31:29.290Z,15
2016-12-31T08:32:18.278Z,10
2016-12-31T08:33:07.299Z,15
2016-12-31T08:33:56.357Z,10
2016-12-31T08:34:44.769Z,10
2016-12-31T08:35:33.521Z,10
2016-12-31T08:36:22.794Z,15
2016-12-31T08:37:11.233Z,15
2016-12-31T08:37:59.809Z,15
2016-12-31T08:38:49.053Z,15
2016-12-31T08:39:37.508Z,15
2016-12-31T08:40:26.228Z,15
2016-12-31T08:41:15.283Z,15
2016-12-31T08:42:03.646Z,15
2016-12-31T08:42:52.293Z,15
2016-12-31T08:43:41.275Z,15
2016-12-31T08:44:30.777Z,15
2016-12-31T08:45:19.921Z,20
2016-12-31T08:46:09.534Z,15
2016-12-31T08:46:59.686Z,15
2016-12-31T08:47:48.838Z,15
2016-12-31T08:48:37.475Z,15
2016-12-31T08:49:25.847Z,20
2016-12-31T08:50:14.383Z,20
2016-12-31T08:50:54.138Z,20
2016-12-31T08:51:34.532Z,20
2016-12-31T08:52:15.042Z,20
2016-12-31T08:52:55.635Z,20
2016-12-31T08:53:37.810Z,20
2016-12-31T08:54:18.312Z,20
2016-12-31T08:54:58.753Z,20
2016-12-31T08:55:39.337Z,20
2016-12-31T08:56:19.796Z,20
2016-12-31T08:57:00.271Z,25
2016-12-31T08:57:40.729Z,25
2016-12-31T08:58:22.183Z,25
2016-12-31T08:59:02.658Z,25
2016-12-31T08:59:43.198Z,25
2016-12-31T09:00:23.648Z,25
2016-12-31T09:01:04.126Z,25
2016-12-31T09:01:44.754Z,25
2016-12-31T09:02:25.227Z,25
2016-12-31T09:03:05.711Z,25
2016-12-31T09:03:46.157Z,25
2016-12-31T09:04:26.627Z,25
2016-12-31T09:05:07.079Z,25
2016-12-31T09:05:48.439Z,25
2016-12-31T09:06:28.946Z,25
2016-12-31T09:07:09.424Z,30
2016-12-31T09:07:49.921Z,30
2016-12-31T09:08:30.412Z,35
2016-12-31T09:09:10.900Z,35
2016-12-31T09:09:51.399Z,30
2016-12-31T09:10:31.924Z,30
2016-12-31T09:11:12.417Z,30
2016-12-31T09:11:52.872Z,30
2016-12-31T09:12:33.976Z,30
2016-12-31T09:13:14.462Z,35
2016-12-31T09:13:54.939Z,35
2016-12-31T09:14:35.409Z,35
2016-12-31T09:15:15.910Z,30
2016-12-31T09:15:56.338Z,30
2016-12-31T09:16:36.828Z,30
2016-12-31T09:17:17.295Z,30
2016-12-31T09:17:57.733Z,30
2016-12-31T09:18:38.291Z,30
2016-12-31T09:19:18.716Z,30
2016-12-31T09:19:59.200Z,30
2016-12-31T09:20:39.647Z,30
2016-12-31T09:21:20.145Z,30
2016-12-31T09:22:00.606Z,30
2016-12-31T09:22:41.070Z,30
2016-12-31T09:23:21.515Z,25
2016-12-31T09:24:02.051Z,30
2016-12-31T09:24:42.549Z,30
2016-12-31T09:25:23.854Z,30
2016-12-31T09:26:04.288Z,30
2016-12-31T09:26:44.815Z,30
2016-12-31T09:27:25.298Z,30
2016-12-31T09:28:05.720Z,30
2016-12-31T09:28:46.184Z,30
2016-12-31T09:29:26.643Z,30
2016-12-31T09:30:07.133Z,30
2016-12-31T09:30:47.633Z,30
2016-12-31T09:31:28.053Z,30
2016-12-31T09:32:08.515Z,30
2016-12-31T09:32:49.071Z,30
2016-12-31T09:33:29.469Z,25
2016-12-31T09:34:09.929Z,30
2016-12-31T09:34:50.429Z,30
2016-12-31T09:35:30.959Z,30
2016-12-31T09:36:11.390Z,35
2016-12-31T09:36:51.862Z,30
2016-12-31T09:37:32.347Z,30
2016-12-31T09:38:12.854Z,30
2016-12-31T09:38:53.349Z,30
2016-12-31T09:39:33.834Z,30
2016-12-31T09:40:14.291Z,30
2016-12-31T09:40:54.841Z,30
2016-12-31T09:41:35.329Z,30
2016-12-31T09:42:15.773Z,30
2016-12-31T09:42:56.271Z,30
2016-12-31T09:43:37.458Z,30
2016-12-31T09:44:17.952Z,30
2016-12-31T09:44:58.417Z,30
2016-12-31T09:45:38.884Z,30
2016-12-31T09:46:19.394Z,30
2016-12-31T09:46:59.878Z,30
2016-12-31T09:47:40.310Z,30
2016-12-31T09:48:20.820Z,35
2016-12-31T09:49:01.271Z,30
2016-12-31T09:49:41.964Z,30
2016-12-31T09:50:22.413Z,30
2016-12-31T09:51:02.869Z,35
2016-12-31T09:51:43.404Z,30
2016-12-31T09:52:23.817Z,30
2016-12-31T09:53:04.310Z,30
2016-12-31T09:53:44.787Z,35
2016-12-31T09:54:25.288Z,30
2016-12-31T09:55:05.747Z,25
2016-12-31T09:55:46.201Z,25
2016-12-31T09:56:26.747Z,30
2016-12-31T09:57:07.211Z,25
2016-12-31T09:57:47.675Z,30
2016-12-31T09:58:28.207Z,25
2016-12-31T09:59:08.674Z,25
2016-12-31T09:59:49.167Z,30
2016-12-31T10:00:29.668Z,30
2016-12-31T10:01:10.176Z,30
2016-12-31T10:01:50.627Z,35
2016-12-31T10:02:31.714Z,30
2016-12-31T10:03:12.158Z,30
2016-12-31T10:03:52.634Z,30
2016-12-31T10:04:33.114Z,30
2016-12-31T10:05:13.583Z,30
2016-12-31T10:05:54.079Z,35
2016-12-31T10:06:34.610Z,30
2016-12-31T10:07:15.069Z,30
2016-12-31T10:07:55.518Z,30
2016-12-31T10:08:35.980Z,30
2016-12-31T10:09:16.536Z,30
2016-12-31T10:09:57.224Z,30
2016-12-31T10:10:37.649Z,30
2016-12-31T10:11:18.125Z,35
2016-12-31T10:11:58.607Z,35
2016-12-31T10:12:39.080Z,35
2016-12-31T10:13:19.502Z,30
2016-12-31T10:14:00.066Z,30
2016-12-31T10:14:40.555Z,35
2016-12-31T10:15:21.030Z,30
2016-12-31T10:16:01.483Z,30
2016-12-31T10:16:42.082Z,30
2016-12-31T10:17:22.513Z,30
2016-12-31T10:18:03.022Z,35
2016-12-31T10:18:44.318Z,30
2016-12-31T10:19:24.847Z,30
2016-12-31T10:20:05.295Z,25
2016-12-31T10:20:45.735Z,25
2016-12-31T10:21:27.233Z,25
2016-12-31T10:22:07.702Z,25
2016-12-31T10:22:48.175Z,25
2016-12-31T10:23:28.627Z,30
2016-12-31T10:24:09.130Z,30
2016-12-31T10:24:49.704Z,30
2016-12-31T10:25:30.168Z,30
2016-12-31T10:26:13.352Z,30
2016-12-31T10:26:52.589Z,30
2016-12-31T10:27:33.252Z,25
2016-12-31T10:28:13.702Z,25
2016-12-31T10:28:54.350Z,25
2016-12-31T10:29:35.138Z,30
2016-12-31T10:30:15.648Z,35
2016-12-31T10:30:57.758Z,30
2016-12-31T10:31:38.261Z,30
2016-12-31T10:32:18.762Z,35
2016-12-31T10:32:59.184Z,35
2016-12-31T10:33:39.730Z,35
2016-12-31T10:34:20.219Z,35
2016-12-31T10:35:00.720Z,35
2016-12-31T10:35:42.759Z,35
2016-12-31T10:36:23.245Z,35
2016-12-31T10:37:03.735Z,35
2016-12-31T10:37:44.214Z,35
2016-12-31T10:38:24.741Z,30
2016-12-31T10:39:05.228Z,35
2016-12-31T10:39:45.758Z,35
2016-12-31T10:40:26.350Z,35
2016-12-31T10:41:06.796Z,35
2016-12-31T10:41:47.324Z,30
2016-12-31T10:42:27.790Z,35
2016-12-31T10:43:08.344Z,35
2016-12-31T10:43:48.764Z,35
2016-12-31T10:44:29.257Z,35
2016-12-31T10:45:09.799Z,35
2016-12-31T10:45:50.249Z,35
2016-12-31T10:46:30.755Z,35
2016-12-31T10:47:12.022Z,35
2016-12-31T10:47:52.497Z,35
2016-12-31T10:48:33.037Z,40
2016-12-31T10:49:13.486Z,40
2016-12-31T10:49:53.970Z,35
2016-12-31T10:50:35.372Z,35
2016-12-31T10:51:15.806Z,35
2016-12-31T10:51:56.296Z,35
2016-12-31T10:52:36.770Z,40
2016-12-31T10:53:17.209Z,40
2016-12-31T10:53:57.683Z,40
2016-12-31T10:54:38.141Z,40
2016-12-31T10:55:18.640Z,35
2016-12-31T10:55:59.097Z,35
2016-12-31T10:56:39.550Z,40
2016-12-31T10:57:20.130Z,40
2016-12-31T10:58:00.577Z,40
2016-12-31T10:58:41.108Z,45
2016-12-31T10:59:21.571Z,40
2016-12-31T11:00:02.109Z,40
2016-12-31T11:00:42.550Z,45
2016-12-31T11:01:23.021Z,40
2016-12-31T11:02:03.580Z,40
2016-12-31T11:02:44.075Z,40
2016-12-31T11:03:24.560Z,40
2016-12-31T11:04:05.179Z,40
2016-12-31T11:04:45.655Z,40
2016-12-31T11:05:26.205Z,40
2016-12-31T11:06:06.611Z,40
2016-12-31T11:06:47.156Z,35
2016-12-31T11:07:27.573Z,35
2016-12-31T11:08:08.090Z,40
2016-12-31T11:08:48.579Z,40
2016-12-31T11:09:29.076Z,45
2016-12-31T11:10:09.547Z,50
2016-12-31T11:10:50.063Z,45
2016-12-31T11:11:30.525Z,45
2016-12-31T11:12:11.007Z,40
2016-12-31T11:12:51.525Z,40
2016-12-31T11:13:31.986Z,40
2016-12-31T11:14:12.441Z,40
2016-12-31T11:14:52.892Z,50
2016-12-31T11:15:33.367Z,50
2016-12-31T11:16:13.863Z,50
2016-12-31T11:16:54.436Z,45
2016-12-31T11:17:34.985Z,45
2016-12-31T11:18:15.379Z,45
2016-12-31T11:18:55.898Z,50
2016-12-31T11:19:36.362Z,50
2016-12-31T11:20:16.864Z,45
2016-12-31T11:20:57.426Z,45
2016-12-31T11:21:38.760Z,40
2016-12-31T11:22:19.217Z,40
2016-12-31T11:22:59.689Z,45
2016-12-31T11:23:40.148Z,50
2016-12-31T11:24:20.625Z,45
2016-12-31T11:25:01.112Z,45
2016-12-31T11:25:41.596Z,40